Time;durP1;ratioP1;P1;durP2;ratioP2;P2;SDS_P1;SDS_P2;PMS_P1;PMS_P2;Temp;Humidity;BMP_temperature;BMP_pressure;BME280_temperature;BME280_humidity;BME280_pressure;Samples;Min_cycle;Max_cycle;Signal;HPM_P1;HPM_P2
2022/10/02 00:01:55;;;;;;;2.77;1.77;;;;;;;;;;5136855;27;20494;-76
2022/10/02 00:04:29;;;;;;;2.47;1.60;;;;;;;;;;5053100;28;20578;-73
2022/10/02 00:06:59;;;;;;;1.90;1.80;;;;;;;;;;5125234;27;20417;-76
2022/10/02 00:09:38;;;;;;;1.60;1.60;;;;;;;;;;5136724;27;20434;-73
2022/10/02 00:12:07;;;;;;;4.83;1.53;;;;;;;;;;5136571;27;20402;-74
2022/10/02 00:14:34;;;;;;;4.10;2.00;;;;;;;;;;5136754;27;20490;-77
2022/10/02 00:17:01;;;;;;;5.00;1.80;;;;;;;;;;5118269;27;20901;-75
2022/10/02 00:19:28;;;;;;;1.83;1.73;;;;;;;;;;5136819;27;20463;-72
2022/10/02 00:22:12;;;;;;;1.97;1.87;;;;;;;;;;5118051;27;20416;-72
2022/10/02 00:24:38;;;;;;;3.53;1.73;;;;;;;;;;5117942;27;20488;-73
2022/10/02 00:27:14;;;;;;;2.00;1.50;;;;;;;;;;5136352;27;20409;-73
2022/10/02 00:30:00;;;;;;;1.97;1.60;;;;;;;;;;5136315;27;20433;-73
2022/10/02 00:32:45;;;;;;;1.77;1.57;;;;;;;;;;5136187;27;20765;-73
2022/10/02 00:35:34;;;;;;;3.20;1.83;;;;;;;;;;5136165;27;20438;-75
2022/10/02 00:38:12;;;;;;;2.40;1.80;;;;;;;;;;5136011;27;20408;-76
2022/10/02 00:41:02;;;;;;;4.40;1.50;;;;;;;;;;5136020;27;20539;-75
2022/10/02 00:43:39;;;;;;;2.83;1.77;;;;;;;;;;5135948;27;20501;-75
2022/10/02 00:46:13;;;;;;;1.67;1.57;;;;;;;;;;5135812;27;21012;-76
2022/10/02 00:48:45;;;;;;;1.50;1.43;;;;;;;;;;5135841;27;20889;-74
2022/10/02 00:51:19;;;;;;;1.60;1.53;;;;;;;;;;5135738;27;20415;-74
2022/10/02 00:53:48;;;;;;;1.50;1.23;;;;;;;;;;5117422;27;20431;-75
2022/10/02 00:56:22;;;;;;;2.60;1.60;;;;;;;;;;5117260;27;20418;-75
2022/10/02 00:59:07;;;;;;;2.67;1.73;;;;;;;;;;5135730;27;20410;-74
2022/10/02 01:01:42;;;;;;;2.80;2.20;;;;;;;;;;5135724;27;20408;-75
2022/10/02 01:04:10;;;;;;;2.50;1.93;;;;;;;;;;5135065;27;20960;-77
2022/10/02 01:06:36;;;;;;;1.40;1.30;;;;;;;;;;5134915;27;20446;-75
2022/10/02 01:09:02;;;;;;;3.50;1.97;;;;;;;;;;5135622;27;20437;-76
2022/10/02 01:11:29;;;;;;;1.97;1.77;;;;;;;;;;5117091;27;20422;-74
2022/10/02 01:13:55;;;;;;;2.43;1.40;;;;;;;;;;5135360;27;20452;-76
2022/10/02 01:16:21;;;;;;;4.63;1.57;;;;;;;;;;5135399;27;20407;-76
2022/10/02 01:18:47;;;;;;;5.33;1.70;;;;;;;;;;5135222;27;20772;-75
2022/10/02 01:21:20;;;;;;;2.00;1.83;;;;;;;;;;5135333;27;20449;-75
2022/10/02 01:23:56;;;;;;;2.63;1.53;;;;;;;;;;5135158;27;20501;-75
2022/10/02 01:26:22;;;;;;;1.20;1.10;;;;;;;;;;5135098;27;20466;-75
2022/10/02 01:28:49;;;;;;;5.30;2.10;;;;;;;;;;5116675;27;20826;-77
2022/10/02 01:31:15;;;;;;;1.70;1.60;;;;;;;;;;5135011;27;20410;-75
2022/10/02 01:33:42;;;;;;;5.50;1.93;;;;;;;;;;5134910;27;20410;-76
2022/10/02 01:36:09;;;;;;;3.00;1.50;;;;;;;;;;5134921;27;20424;-74
2022/10/02 01:38:35;;;;;;;1.60;1.50;;;;;;;;;;5134970;27;20415;-75
2022/10/02 01:41:01;;;;;;;2.33;1.73;;;;;;;;;;5134903;27;20917;-74
2022/10/02 01:43:27;;;;;;;3.17;1.50;;;;;;;;;;5134887;27;20411;-77
2022/10/02 01:46:02;;;;;;;7.60;1.77;;;;;;;;;;5134755;27;20469;-77
2022/10/02 01:48:39;;;;;;;2.23;1.77;;;;;;;;;;5134690;27;20417;-76
2022/10/02 01:51:24;;;;;;;2.33;1.93;;;;;;;;;;5134740;27;20413;-77
2022/10/02 01:53:52;;;;;;;1.90;1.30;;;;;;;;;;5134681;27;20408;-77
2022/10/02 01:56:20;;;;;;;4.33;1.87;;;;;;;;;;5134675;27;20402;-78
2022/10/02 01:59:04;;;;;;;1.93;1.80;;;;;;;;;;5134638;27;20965;-78
2022/10/02 02:01:36;;;;;;;10.63;1.63;;;;;;;;;;5134537;27;20446;-75
2022/10/02 02:04:23;;;;;;;1.90;1.77;;;;;;;;;;5134266;27;20478;-76
2022/10/02 02:06:54;;;;;;;2.93;1.60;;;;;;;;;;5134523;27;20458;-77
2022/10/02 02:09:49;;;;;;;3.50;1.80;;;;;;;;;;5134461;27;20894;-76
2022/10/02 02:12:21;;;;;;;3.20;1.50;;;;;;;;;;5116755;27;20427;-76
2022/10/02 02:14:50;;;;;;;2.70;1.77;;;;;;;;;;5134383;28;20434;-75
2022/10/02 02:17:22;;;;;;;4.17;1.50;;;;;;;;;;5134040;27;20402;-75
2022/10/02 02:19:51;;;;;;;3.03;1.60;;;;;;;;;;5134404;28;20407;-77
2022/10/02 02:22:23;;;;;;;6.63;2.00;;;;;;;;;;5115965;28;20781;-74
2022/10/02 02:25:10;;;;;;;1.93;1.80;;;;;;;;;;5116038;28;20538;-75
2022/10/02 02:27:39;;;;;;;2.30;1.67;;;;;;;;;;5134309;28;20463;-77
2022/10/02 02:30:07;;;;;;;3.13;1.40;;;;;;;;;;5134309;28;20402;-77
2022/10/02 02:32:36;;;;;;;3.17;1.43;;;;;;;;;;5134205;28;20785;-76
2022/10/02 02:35:09;;;;;;;3.23;1.50;;;;;;;;;;5115816;28;20785;-77
2022/10/02 02:37:36;;;;;;;5.90;1.43;;;;;;;;;;5134226;28;20420;-76
2022/10/02 02:40:11;;;;;;;2.30;1.73;;;;;;;;;;5134206;28;20428;-76
2022/10/02 02:42:41;;;;;;;2.40;1.40;;;;;;;;;;5115761;28;20430;-77
2022/10/02 02:45:17;;;;;;;2.37;2.00;;;;;;;;;;5115728;28;20454;-78
2022/10/02 02:47:48;;;;;;;2.20;1.50;;;;;;;;;;5134157;28;20430;-77
2022/10/02 02:50:17;;;;;;;2.70;1.47;;;;;;;;;;5115727;28;20412;-77
2022/10/02 02:52:55;;;;;;;4.73;1.93;;;;;;;;;;5134087;28;20419;-77
2022/10/02 02:55:23;;;;;;;3.00;1.63;;;;;;;;;;5134119;28;20406;-77
2022/10/02 02:57:52;;;;;;;2.50;1.40;;;;;;;;;;5134060;28;20418;-76
2022/10/02 03:00:18;;;;;;;4.50;1.77;;;;;;;;;;5115652;28;20453;-75
2022/10/02 03:02:45;;;;;;;1.70;1.60;;;;;;;;;;5133933;28;20422;-77
2022/10/02 03:05:12;;;;;;;6.10;1.83;;;;;;;;;;5133803;28;20539;-76
2022/10/02 03:07:38;;;;;;;5.13;1.60;;;;;;;;;;5115478;28;20470;-75
2022/10/02 03:10:13;;;;;;;1.77;1.40;;;;;;;;;;5134017;28;20509;-76
2022/10/02 03:12:53;;;;;;;2.87;1.80;;;;;;;;;;5133903;28;20405;-76
2022/10/02 03:15:25;;;;;;;2.97;1.80;;;;;;;;;;5133906;28;20405;-77
2022/10/02 03:18:14;;;;;;;2.50;1.63;;;;;;;;;;5133739;28;20840;-74
2022/10/02 03:21:00;;;;;;;1.70;1.60;;;;;;;;;;5115390;28;20431;-75
2022/10/02 03:23:45;;;;;;;6.37;1.13;;;;;;;;;;5133718;28;20412;-76
2022/10/02 03:26:18;;;;;;;1.53;1.43;;;;;;;;;;5133749;28;20461;-77
2022/10/02 03:28:55;;;;;;;2.00;1.47;;;;;;;;;;5117117;27;20848;-76
2022/10/02 03:31:22;;;;;;;7.10;1.70;;;;;;;;;;5137361;27;20490;-77
2022/10/02 03:33:49;;;;;;;1.67;1.57;;;;;;;;;;5137225;27;20964;-78
2022/10/02 03:36:16;;;;;;;3.23;1.50;;;;;;;;;;5137319;27;20807;-77
2022/10/02 03:38:43;;;;;;;2.50;1.40;;;;;;;;;;5137327;27;20472;-74
2022/10/02 03:41:09;;;;;;;3.33;1.50;;;;;;;;;;5137200;27;20519;-78
2022/10/02 03:43:35;;;;;;;1.50;1.40;;;;;;;;;;5137240;27;20407;-77
2022/10/02 03:46:01;;;;;;;1.73;1.43;;;;;;;;;;5137073;27;20469;-74
2022/10/02 03:48:27;;;;;;;2.57;1.30;;;;;;;;;;5137131;27;20410;-77
2022/10/02 03:50:53;;;;;;;2.43;1.53;;;;;;;;;;5137054;27;20402;-79
2022/10/02 03:53:21;;;;;;;2.63;1.60;;;;;;;;;;5137022;27;20419;-77
2022/10/02 03:55:53;;;;;;;3.43;1.90;;;;;;;;;;5137067;27;20402;-76
2022/10/02 03:58:19;;;;;;;2.20;1.37;;;;;;;;;;5136920;27;20517;-78
2022/10/02 04:00:55;;;;;;;1.10;1.10;;;;;;;;;;5136887;27;20445;-75
2022/10/02 04:03:23;;;;;;;1.80;1.70;;;;;;;;;;5136514;27;20410;-76
2022/10/02 04:05:54;;;;;;;2.10;1.17;;;;;;;;;;5136660;27;20554;-77
2022/10/02 04:08:40;;;;;;;1.40;1.40;;;;;;;;;;5136694;27;20502;-74
2022/10/02 04:11:12;;;;;;;1.50;1.40;;;;;;;;;;5136437;27;20418;-79
2022/10/02 04:13:41;;;;;;;1.73;1.60;;;;;;;;;;5118213;27;20426;-76
2022/10/02 04:16:14;;;;;;;3.70;1.30;;;;;;;;;;5136609;27;20895;-75
2022/10/02 04:18:45;;;;;;;2.70;1.43;;;;;;;;;;5136426;27;20859;-73
2022/10/02 04:21:26;;;;;;;1.77;1.67;;;;;;;;;;5136431;27;20399;-79
2022/10/02 04:23:54;;;;;;;1.93;1.50;;;;;;;;;;5117920;27;20419;-79
2022/10/02 04:26:22;;;;;;;3.90;1.40;;;;;;;;;;5136209;27;20920;-75
2022/10/02 04:28:54;;;;;;;5.80;1.83;;;;;;;;;;5136298;27;20791;-75
2022/10/02 04:31:20;;;;;;;2.20;1.73;;;;;;;;;;5136324;27;20404;-78
2022/10/02 04:33:46;;;;;;;1.20;1.20;;;;;;;;;;5136122;27;20923;-77
2022/10/02 04:36:15;;;;;;;1.63;1.53;;;;;;;;;;5136171;27;20460;-77
2022/10/02 04:38:44;;;;;;;2.40;1.67;;;;;;;;;;5136076;27;20848;-78
2022/10/02 04:41:23;;;;;;;1.33;1.30;;;;;;;;;;5136166;27;20510;-74
2022/10/02 04:44:09;;;;;;;4.03;1.80;;;;;;;;;;5117596;27;20410;-78
2022/10/02 04:46:54;;;;;;;4.07;1.50;;;;;;;;;;5135622;27;20435;-78
2022/10/02 04:49:25;;;;;;;1.90;1.53;;;;;;;;;;5135846;27;20503;-76
2022/10/02 04:52:13;;;;;;;1.63;1.63;;;;;;;;;;5135811;27;20407;-78
2022/10/02 04:55:03;;;;;;;2.30;1.60;;;;;;;;;;5135783;27;20397;-74
2022/10/02 04:57:34;;;;;;;3.53;1.80;;;;;;;;;;5097551;27;20910;-76
2022/10/02 05:00:03;;;;;;;1.60;1.10;;;;;;;;;;5135962;27;20749;-76
2022/10/02 05:02:44;;;;;;;2.83;1.80;;;;;;;;;;5135476;27;20411;-74
2022/10/02 05:05:17;;;;;;;5.03;1.43;;;;;;;;;;5135261;27;20601;-74
2022/10/02 05:07:43;;;;;;;3.50;1.50;;;;;;;;;;5135504;27;20758;-77
2022/10/02 05:10:21;;;;;;;1.53;1.37;;;;;;;;;;5135464;27;20502;-75
2022/10/02 05:13:10;;;;;;;1.40;1.40;;;;;;;;;;5135726;27;20463;-77
2022/10/02 05:15:39;;;;;;;1.67;1.13;;;;;;;;;;5135367;27;20411;-77
2022/10/02 05:18:14;;;;;;;5.10;1.80;;;;;;;;;;5135204;27;20489;-79
2022/10/02 05:20:51;;;;;;;4.07;1.70;;;;;;;;;;5135211;27;20495;-76
2022/10/02 05:23:23;;;;;;;4.57;1.67;;;;;;;;;;5135253;27;20438;-77
2022/10/02 05:26:08;;;;;;;1.50;1.20;;;;;;;;;;5135154;27;20474;-77
2022/10/02 05:28:56;;;;;;;9.30;1.67;;;;;;;;;;5135135;27;20482;-78
2022/10/02 05:31:24;;;;;;;3.60;1.80;;;;;;;;;;5135117;27;20403;-78
2022/10/02 05:34:09;;;;;;;3.77;1.70;;;;;;;;;;5134984;27;20410;-78
2022/10/02 05:36:38;;;;;;;2.00;1.50;;;;;;;;;;5116551;27;20571;-77
2022/10/02 05:39:37;;;;;;;1.43;1.40;;;;;;;;;;5134856;27;20408;-78
2022/10/02 05:42:07;;;;;;;2.93;1.50;;;;;;;;;;5089787;27;20950;-78
2022/10/02 05:44:36;;;;;;;2.80;1.40;;;;;;;;;;5116305;27;20455;-78
2022/10/02 05:47:25;;;;;;;5.80;1.10;;;;;;;;;;5134817;27;20416;-76
2022/10/02 05:49:55;;;;;;;2.40;1.40;;;;;;;;;;5123983;27;20426;-76
2022/10/02 05:52:29;;;;;;;4.30;1.50;;;;;;;;;;5134117;27;20525;-77
2022/10/02 05:54:57;;;;;;;2.50;1.10;;;;;;;;;;5116245;27;20411;-75
2022/10/02 05:57:45;;;;;;;2.73;1.40;;;;;;;;;;5134602;27;20413;-75
2022/10/02 06:00:30;;;;;;;1.63;1.13;;;;;;;;;;5134673;27;20889;-75
2022/10/02 06:03:14;;;;;;;5.10;1.37;;;;;;;;;;5134430;27;20900;-78
2022/10/02 06:05:53;;;;;;;2.10;1.50;;;;;;;;;;5134473;27;20478;-76
2022/10/02 06:08:22;;;;;;;3.33;1.00;;;;;;;;;;5134414;27;20506;-76
2022/10/02 06:10:50;;;;;;;1.10;1.10;;;;;;;;;;5134456;27;20407;-77
2022/10/02 06:13:28;;;;;;;1.67;1.30;;;;;;;;;;5134466;27;20899;-76
2022/10/02 06:15:54;;;;;;;3.23;1.43;;;;;;;;;;5115988;28;20928;-75
2022/10/02 06:18:28;;;;;;;0.87;0.87;;;;;;;;;;5134421;28;20419;-76
2022/10/02 06:20:57;;;;;;;2.40;2.20;;;;;;;;;;5134404;28;20399;-76
2022/10/02 06:23:29;;;;;;;1.20;1.20;;;;;;;;;;5116001;28;20906;-76
2022/10/02 06:25:57;;;;;;;2.10;1.40;;;;;;;;;;5134189;28;20968;-75
2022/10/02 06:28:27;;;;;;;1.47;1.07;;;;;;;;;;5134218;28;20819;-76
2022/10/02 06:30:58;;;;;;;4.73;1.20;;;;;;;;;;5134313;28;20475;-76
2022/10/02 06:33:25;;;;;;;1.10;1.10;;;;;;;;;;5115878;28;20423;-75
2022/10/02 06:36:12;;;;;;;1.37;1.23;;;;;;;;;;5115501;28;20423;-75
2022/10/02 06:38:57;;;;;;;4.27;1.07;;;;;;;;;;5134187;28;20402;-76
2022/10/02 06:41:28;;;;;;;3.13;1.53;;;;;;;;;;5134131;28;20755;-78
2022/10/02 06:44:06;;;;;;;1.43;1.10;;;;;;;;;;5134286;28;20399;-77
2022/10/02 06:46:41;;;;;;;1.20;1.13;;;;;;;;;;5134105;28;20491;-75
2022/10/02 06:49:24;;;;;;;5.10;0.90;;;;;;;;;;5115669;28;20412;-77
2022/10/02 06:51:50;;;;;;;2.00;1.30;;;;;;;;;;5115865;28;20419;-76
2022/10/02 06:54:27;;;;;;;1.37;1.00;;;;;;;;;;5134110;28;20405;-75
2022/10/02 06:57:00;;;;;;;1.87;1.50;;;;;;;;;;5134070;28;20411;-75
2022/10/02 06:59:48;;;;;;;0.97;0.97;;;;;;;;;;5133996;28;20775;-74
2022/10/02 07:02:38;;;;;;;2.13;1.00;;;;;;;;;;5133922;27;20902;-75
2022/10/02 07:05:06;;;;;;;2.33;1.20;;;;;;;;;;5137598;27;20555;-72
2022/10/02 07:07:35;;;;;;;3.40;1.50;;;;;;;;;;5137868;27;20404;-73
2022/10/02 07:10:17;;;;;;;3.33;1.10;;;;;;;;;;5119391;27;20465;-74
2022/10/02 07:12:52;;;;;;;1.73;1.03;;;;;;;;;;5137695;27;20402;-74
2022/10/02 07:15:21;;;;;;;1.10;1.10;;;;;;;;;;5119346;27;20455;-75
2022/10/02 07:17:53;;;;;;;0.90;0.90;;;;;;;;;;5137615;27;20890;-76
2022/10/02 07:20:25;;;;;;;1.20;1.10;;;;;;;;;;5137611;27;20551;-69
2022/10/02 07:23:12;;;;;;;3.43;1.13;;;;;;;;;;5137484;27;21040;-69
2022/10/02 07:25:57;;;;;;;0.60;0.60;;;;;;;;;;5137418;27;20463;-71
2022/10/02 07:28:32;;;;;;;1.27;0.80;;;;;;;;;;5137453;27;20408;-70
2022/10/02 07:31:05;;;;;;;2.20;0.90;;;;;;;;;;5137356;27;20451;-70
2022/10/02 07:33:31;;;;;;;3.13;0.70;;;;;;;;;;5118947;27;20912;-70
2022/10/02 07:36:08;;;;;;;0.60;0.60;;;;;;;;;;5137290;27;20552;-70
2022/10/02 07:38:51;;;;;;;0.80;0.80;;;;;;;;;;5137225;27;20409;-69
2022/10/02 07:41:17;;;;;;;1.17;1.00;;;;;;;;;;5137214;27;20402;-69
2022/10/02 07:43:46;;;;;;;0.50;0.50;;;;;;;;;;5137459;27;20393;-68
2022/10/02 07:46:15;;;;;;;0.53;0.53;;;;;;;;;;5137003;27;20455;-69
2022/10/02 07:48:41;;;;;;;1.17;0.60;;;;;;;;;;5118709;27;20411;-69
2022/10/02 07:54:23;;;;;;;0.70;0.70;;;;;;;;;;5137506;27;20399;-68
2022/10/02 07:56:50;;;;;;;0.70;0.70;;;;;;;;;;5136869;27;20495;-69
2022/10/02 07:59:17;;;;;;;1.00;0.80;;;;;;;;;;5136861;27;20414;-71
2022/10/02 08:01:44;;;;;;;1.13;0.60;;;;;;;;;;5136824;27;20512;-68
2022/10/02 08:04:13;;;;;;;0.40;0.40;;;;;;;;;;5136481;27;20857;-69
2022/10/02 08:06:40;;;;;;;0.70;0.70;;;;;;;;;;5136665;27;20416;-70
2022/10/02 08:09:19;;;;;;;0.53;0.50;;;;;;;;;;5118250;27;20901;-69
2022/10/02 08:11:59;;;;;;;0.60;0.60;;;;;;;;;;5136607;27;20442;-70
2022/10/02 08:14:29;;;;;;;0.77;0.50;;;;;;;;;;5136061;27;20415;-70
2022/10/02 08:16:57;;;;;;;1.57;0.57;;;;;;;;;;5136525;27;20504;-70
2022/10/02 08:19:33;;;;;;;0.70;0.70;;;;;;;;;;5136434;27;20757;-70
2022/10/02 08:22:19;;;;;;;2.00;0.90;;;;;;;;;;5136404;27;20409;-70
2022/10/02 08:24:47;;;;;;;1.53;0.60;;;;;;;;;;5136322;27;20449;-70
2022/10/02 08:27:34;;;;;;;0.40;0.40;;;;;;;;;;5136276;27;20412;-69
2022/10/02 08:30:05;;;;;;;0.70;0.70;;;;;;;;;;5122069;27;20755;-70
2022/10/02 08:32:32;;;;;;;0.90;0.60;;;;;;;;;;5136117;27;20406;-70
2022/10/02 08:34:59;;;;;;;0.40;0.40;;;;;;;;;;5136134;27;20467;-71
2022/10/02 08:37:40;;;;;;;0.50;0.50;;;;;;;;;;5136107;27;20442;-70
2022/10/02 08:40:25;;;;;;;1.03;0.50;;;;;;;;;;5135950;27;20484;-73
2022/10/02 08:43:09;;;;;;;3.40;0.90;;;;;;;;;;5136003;27;20398;-73
2022/10/02 08:45:41;;;;;;;2.47;0.90;;;;;;;;;;5135891;27;20477;-71
2022/10/02 08:48:21;;;;;;;0.50;0.50;;;;;;;;;;5135791;27;20409;-74
2022/10/02 08:50:58;;;;;;;0.80;0.80;;;;;;;;;;5135878;27;20496;-72
2022/10/02 08:53:39;;;;;;;0.70;0.70;;;;;;;;;;5135788;27;20413;-71
2022/10/02 08:56:22;;;;;;;2.23;0.70;;;;;;;;;;5135706;27;20497;-72
2022/10/02 08:59:03;;;;;;;0.70;0.70;;;;;;;;;;5135570;27;20494;-75
2022/10/02 09:01:38;;;;;;;0.70;0.70;;;;;;;;;;5117063;27;20813;-72
2022/10/02 09:04:21;;;;;;;0.57;0.50;;;;;;;;;;5116947;27;20615;-73
2022/10/02 09:07:06;;;;;;;0.60;0.60;;;;;;;;;;5135475;27;20416;-71
2022/10/02 09:09:52;;;;;;;0.90;0.90;;;;;;;;;;5135456;27;20397;-73
2022/10/02 09:12:47;;;;;;;2.73;2.67;;;;;;;;;;5135302;27;20427;-70
2022/10/02 09:15:39;;;;;;;0.53;0.53;;;;;;;;;;5135327;27;20444;-69
2022/10/02 09:18:25;;;;;;;1.03;0.60;;;;;;;;;;5147474;27;20485;-70
2022/10/02 09:21:09;;;;;;;0.97;0.70;;;;;;;;;;5135529;27;20821;-70
2022/10/02 09:23:41;;;;;;;0.60;0.60;;;;;;;;;;5116808;27;20429;-70
2022/10/02 09:26:07;;;;;;;1.13;0.60;;;;;;;;;;5134343;27;20489;-70
2022/10/02 09:28:42;;;;;;;0.70;0.70;;;;;;;;;;5135093;27;20783;-70
2022/10/02 09:31:29;;;;;;;0.50;0.50;;;;;;;;;;5135034;27;20405;-70
2022/10/02 09:34:13;;;;;;;0.60;0.60;;;;;;;;;;5092929;27;20413;-69
2022/10/02 09:36:39;;;;;;;1.50;1.50;;;;;;;;;;5134965;27;20409;-70
2022/10/02 09:39:06;;;;;;;1.10;1.10;;;;;;;;;;5134841;27;20419;-70
2022/10/02 09:41:42;;;;;;;1.23;1.10;;;;;;;;;;5116406;27;20813;-70
2022/10/02 09:44:08;;;;;;;0.60;0.60;;;;;;;;;;5134908;27;20409;-69
2022/10/02 09:46:55;;;;;;;0.73;0.60;;;;;;;;;;5116590;27;20505;-70
2022/10/02 09:49:23;;;;;;;1.00;1.00;;;;;;;;;;5134715;27;20492;-69
2022/10/02 09:52:08;;;;;;;0.60;0.60;;;;;;;;;;5134728;27;20733;-68
2022/10/02 09:54:52;;;;;;;0.57;0.57;;;;;;;;;;5134697;27;20908;-69
2022/10/02 09:57:34;;;;;;;1.37;1.00;;;;;;;;;;5134602;27;20419;-69
2022/10/02 10:00:18;;;;;;;1.53;0.70;;;;;;;;;;5134559;27;20431;-69
2022/10/02 10:03:02;;;;;;;1.10;1.10;;;;;;;;;;5134480;27;20423;-68
2022/10/02 10:05:33;;;;;;;0.97;0.87;;;;;;;;;;5134218;27;20472;-69
2022/10/02 10:08:02;;;;;;;1.53;0.97;;;;;;;;;;5134432;27;20451;-68
2022/10/02 10:10:28;;;;;;;0.73;0.73;;;;;;;;;;5134430;27;20764;-70
2022/10/02 10:13:08;;;;;;;5.40;4.90;;;;;;;;;;5116015;27;20933;-68
2022/10/02 10:15:53;;;;;;;0.70;0.70;;;;;;;;;;5134355;27;20396;-69
2022/10/02 10:18:29;;;;;;;1.10;1.10;;;;;;;;;;5134259;27;20533;-69
2022/10/02 10:21:07;;;;;;;0.97;0.97;;;;;;;;;;5134438;28;20814;-69
2022/10/02 10:23:46;;;;;;;0.50;0.50;;;;;;;;;;5134350;28;20404;-68
2022/10/02 10:26:34;;;;;;;2.03;1.93;;;;;;;;;;5134226;28;20912;-68
2022/10/02 10:29:09;;;;;;;1.00;1.00;;;;;;;;;;5134251;28;20780;-68
2022/10/02 10:31:35;;;;;;;0.83;0.83;;;;;;;;;;5134316;28;20767;-68
2022/10/02 10:34:22;;;;;;;1.90;0.50;;;;;;;;;;5134181;28;20403;-69
2022/10/02 10:40:10;;;;;;;0.70;0.70;;;;;;;;;;5138566;27;20436;-67
2022/10/02 10:42:56;;;;;;;2.30;0.87;;;;;;;;;;5138300;27;20408;-68
2022/10/02 10:45:22;;;;;;;0.60;0.60;;;;;;;;;;5138252;27;20977;-68
2022/10/02 10:47:51;;;;;;;0.80;0.80;;;;;;;;;;5119749;27;20511;-69
2022/10/02 10:50:35;;;;;;;0.80;0.80;;;;;;;;;;5138455;27;20424;-68
2022/10/02 10:53:20;;;;;;;1.20;1.20;;;;;;;;;;5138145;27;20768;-69
2022/10/02 10:56:01;;;;;;;1.60;1.60;;;;;;;;;;5138244;27;20505;-69
2022/10/02 10:58:33;;;;;;;2.00;1.90;;;;;;;;;;5119627;27;20416;-70
2022/10/02 11:01:08;;;;;;;1.33;1.00;;;;;;;;;;5137881;27;20783;-70
2022/10/02 11:03:43;;;;;;;1.00;1.00;;;;;;;;;;5137748;27;20616;-70
2022/10/02 11:06:25;;;;;;;1.40;1.40;;;;;;;;;;5137865;27;20464;-70
2022/10/02 11:09:09;;;;;;;0.90;0.90;;;;;;;;;;5137846;27;20845;-69
2022/10/02 11:11:44;;;;;;;4.00;1.40;;;;;;;;;;5137657;27;20921;-70
2022/10/02 11:14:11;;;;;;;0.90;0.90;;;;;;;;;;5137726;27;20504;-69
2022/10/02 11:16:42;;;;;;;1.40;0.70;;;;;;;;;;5137699;27;20869;-70
2022/10/02 11:19:08;;;;;;;7.00;1.10;;;;;;;;;;5137593;27;20785;-69
2022/10/02 11:21:50;;;;;;;1.03;1.03;;;;;;;;;;5137661;27;20397;-68
2022/10/02 11:24:17;;;;;;;0.90;0.90;;;;;;;;;;5137567;27;20406;-69
2022/10/02 11:26:43;;;;;;;1.80;1.50;;;;;;;;;;5137351;27;20471;-69
2022/10/02 11:29:12;;;;;;;0.97;0.97;;;;;;;;;;5119062;27;20432;-70
2022/10/02 11:31:41;;;;;;;0.77;0.77;;;;;;;;;;5137460;27;20471;-69
2022/10/02 11:34:25;;;;;;;13.10;11.10;;;;;;;;;;5118977;27;20485;-70
2022/10/02 11:36:55;;;;;;;1.57;0.97;;;;;;;;;;5137290;27;20895;-70
2022/10/02 11:39:40;;;;;;;1.90;0.93;;;;;;;;;;5118853;27;20417;-70
2022/10/02 11:42:08;;;;;;;1.13;1.10;;;;;;;;;;5137202;27;20485;-71
2022/10/02 11:44:56;;;;;;;1.40;0.80;;;;;;;;;;5137051;27;20536;-69
2022/10/02 11:47:40;;;;;;;0.80;0.80;;;;;;;;;;5137009;27;20414;-68
2022/10/02 11:50:45;;;;;;;0.60;0.60;;;;;;;;;;5136129;27;20407;-68
2022/10/02 11:53:11;;;;;;;0.50;0.50;;;;;;;;;;5053632;28;20920;-67
2022/10/02 11:55:55;;;;;;;0.50;0.50;;;;;;;;;;5053666;28;20409;-69
2022/10/02 11:58:43;;;;;;;3.10;0.67;;;;;;;;;;5103494;27;20434;-69
2022/10/02 12:01:13;;;;;;;0.90;0.60;;;;;;;;;;5136858;27;20434;-69
2022/10/02 12:03:46;;;;;;;1.27;1.10;;;;;;;;;;5136626;27;20460;-68
2022/10/02 12:06:23;;;;;;;1.63;0.70;;;;;;;;;;5136647;27;20520;-68
2022/10/02 12:08:58;;;;;;;0.97;0.77;;;;;;;;;;5136775;27;20422;-70
2022/10/02 12:11:33;;;;;;;0.60;0.60;;;;;;;;;;5136644;27;20398;-69
2022/10/02 12:14:00;;;;;;;0.60;0.60;;;;;;;;;;5136636;27;20401;-69
2022/10/02 12:16:44;;;;;;;0.53;0.53;;;;;;;;;;5118121;27;20935;-69
2022/10/02 12:19:10;;;;;;;0.60;0.60;;;;;;;;;;5136479;27;20967;-68
2022/10/02 12:27:29;;;;;;;0.67;0.50;;;;;;;;;;5136341;27;20453;-68
2022/10/02 12:30:04;;;;;;;1.53;0.73;;;;;;;;;;5136352;27;20453;-69
2022/10/02 12:32:52;;;;;;;3.97;0.90;;;;;;;;;;5136220;27;20970;-70
2022/10/02 12:35:33;;;;;;;1.90;0.77;;;;;;;;;;5136179;27;20412;-68
2022/10/02 12:38:02;;;;;;;0.70;0.70;;;;;;;;;;5117512;27;20441;-69
2022/10/02 12:40:33;;;;;;;0.80;0.80;;;;;;;;;;5136076;27;20413;-68
2022/10/02 12:42:59;;;;;;;5.20;0.60;;;;;;;;;;5136028;27;20910;-68
2022/10/02 12:45:51;;;;;;;1.80;0.60;;;;;;;;;;5135854;27;20468;-68
2022/10/02 12:48:46;;;;;;;2.47;0.67;;;;;;;;;;5132049;27;20464;-68
2022/10/02 12:51:35;;;;;;;0.50;0.50;;;;;;;;;;5118070;27;20428;-69
2022/10/02 12:54:06;;;;;;;0.50;0.50;;;;;;;;;;5124940;27;20407;-68
2022/10/02 12:56:32;;;;;;;0.57;0.57;;;;;;;;;;5135772;27;20441;-71
2022/10/02 12:59:13;;;;;;;0.70;0.50;;;;;;;;;;5135759;27;20388;-70
2022/10/02 13:02:04;;;;;;;2.23;0.60;;;;;;;;;;5135654;27;20466;-69
2022/10/02 13:04:36;;;;;;;0.50;0.50;;;;;;;;;;5135321;27;20447;-69
2022/10/02 13:07:15;;;;;;;1.07;0.60;;;;;;;;;;5135333;27;20917;-70
2022/10/02 13:10:04;;;;;;;0.50;0.50;;;;;;;;;;5135430;27;20414;-69
2022/10/02 13:12:38;;;;;;;2.07;0.80;;;;;;;;;;5140593;27;20421;-69
2022/10/02 13:15:25;;;;;;;1.43;0.60;;;;;;;;;;5135393;27;20889;-69
2022/10/02 13:17:57;;;;;;;1.10;0.63;;;;;;;;;;5135151;27;20440;-69
2022/10/02 13:20:41;;;;;;;1.03;0.70;;;;;;;;;;5135207;27;20403;-69
2022/10/02 13:23:28;;;;;;;0.73;0.73;;;;;;;;;;5135196;27;20423;-69
2022/10/02 13:26:07;;;;;;;0.50;0.50;;;;;;;;;;5135208;27;20646;-69
2022/10/02 13:28:33;;;;;;;2.50;0.80;;;;;;;;;;5135069;27;20406;-70
2022/10/02 13:31:18;;;;;;;0.40;0.40;;;;;;;;;;5135015;27;20410;-71
2022/10/02 13:33:49;;;;;;;0.70;0.70;;;;;;;;;;5134859;27;20434;-70
2022/10/02 13:36:20;;;;;;;0.60;0.40;;;;;;;;;;5134809;27;20492;-70
2022/10/02 13:38:46;;;;;;;0.50;0.50;;;;;;;;;;5134807;27;20773;-71
2022/10/02 13:41:30;;;;;;;0.50;0.50;;;;;;;;;;5134866;27;20402;-71
2022/10/02 13:44:06;;;;;;;1.37;0.73;;;;;;;;;;5134803;27;20401;-71
2022/10/02 13:46:41;;;;;;;0.60;0.60;;;;;;;;;;5116288;27;20583;-71
2022/10/02 13:49:19;;;;;;;2.57;0.67;;;;;;;;;;5116264;27;20416;-70
2022/10/02 13:51:55;;;;;;;0.70;0.70;;;;;;;;;;5134709;27;20421;-70
2022/10/02 13:54:32;;;;;;;0.70;0.70;;;;;;;;;;5134945;27;20492;-70
2022/10/02 13:56:58;;;;;;;1.33;0.63;;;;;;;;;;5135032;27;20754;-70
2022/10/02 13:59:44;;;;;;;0.70;0.43;;;;;;;;;;5134640;27;20416;-69
2022/10/02 14:02:20;;;;;;;0.50;0.50;;;;;;;;;;5134432;27;20451;-70
2022/10/02 14:04:48;;;;;;;0.97;0.77;;;;;;;;;;5134446;27;20505;-69
2022/10/02 14:07:17;;;;;;;0.70;0.70;;;;;;;;;;5134519;27;20420;-71
2022/10/02 14:09:49;;;;;;;0.70;0.70;;;;;;;;;;5134418;27;20557;-69
2022/10/02 14:12:19;;;;;;;6.90;1.00;;;;;;;;;;5134028;27;20416;-69
2022/10/02 14:14:45;;;;;;;1.53;0.80;;;;;;;;;;5134733;27;20754;-70
2022/10/02 14:17:22;;;;;;;0.50;0.50;;;;;;;;;;5134396;27;20402;-70
2022/10/02 14:19:54;;;;;;;1.33;0.63;;;;;;;;;;5134377;27;20409;-70
2022/10/02 14:22:29;;;;;;;2.83;0.70;;;;;;;;;;5134254;28;20413;-70
2022/10/02 14:25:17;;;;;;;7.90;0.80;;;;;;;;;;5134275;28;20459;-70
2022/10/02 14:27:49;;;;;;;1.10;0.80;;;;;;;;;;5134241;28;20825;-70
2022/10/02 14:30:18;;;;;;;5.70;1.00;;;;;;;;;;5134290;28;20405;-70
2022/10/02 14:32:50;;;;;;;2.53;1.00;;;;;;;;;;5134161;28;20415;-70
2022/10/02 14:35:34;;;;;;;0.70;0.70;;;;;;;;;;5134304;28;20883;-69
2022/10/02 14:38:12;;;;;;;2.97;0.67;;;;;;;;;;5115788;28;20436;-70
2022/10/02 14:40:49;;;;;;;1.60;1.40;;;;;;;;;;5134229;28;20892;-69
2022/10/02 14:43:33;;;;;;;1.07;1.00;;;;;;;;;;5115717;28;20471;-70
2022/10/02 14:46:18;;;;;;;0.70;0.70;;;;;;;;;;5134085;28;20466;-71
2022/10/02 14:49:04;;;;;;;2.30;0.80;;;;;;;;;;5115576;28;20420;-70
2022/10/02 14:51:42;;;;;;;0.70;0.70;;;;;;;;;;5134052;28;20439;-70
2022/10/02 14:54:22;;;;;;;1.47;0.90;;;;;;;;;;5133865;28;20820;-70
2022/10/02 14:57:11;;;;;;;1.00;1.00;;;;;;;;;;5133906;28;20459;-70
2022/10/02 14:59:52;;;;;;;1.80;1.00;;;;;;;;;;5123054;28;20922;-69
2022/10/02 15:02:19;;;;;;;6.77;1.00;;;;;;;;;;5133863;28;20429;-70
2022/10/02 15:04:48;;;;;;;1.00;0.80;;;;;;;;;;5133448;28;21007;-70
2022/10/02 15:07:16;;;;;;;1.30;1.20;;;;;;;;;;5133930;28;20414;-68
2022/10/02 15:09:57;;;;;;;4.20;1.47;;;;;;;;;;5115461;28;20781;-69
2022/10/02 15:12:35;;;;;;;1.17;1.00;;;;;;;;;;5133836;28;20421;-70
2022/10/02 15:15:01;;;;;;;3.57;1.97;;;;;;;;;;5133791;28;20448;-69
2022/10/02 15:17:55;;;;;;;1.57;1.50;;;;;;;;;;5115578;28;20438;-70
2022/10/02 15:20:24;;;;;;;3.50;1.00;;;;;;;;;;5133852;28;20489;-69
2022/10/02 15:23:02;;;;;;;1.90;1.30;;;;;;;;;;5133835;28;20417;-71
2022/10/02 15:25:46;;;;;;;2.30;1.20;;;;;;;;;;5136399;27;20459;-70
2022/10/02 15:28:26;;;;;;;1.17;1.00;;;;;;;;;;5137599;27;20497;-70
2022/10/02 15:30:56;;;;;;;3.10;1.63;;;;;;;;;;5119060;27;20406;-70
2022/10/02 15:33:25;;;;;;;3.23;1.00;;;;;;;;;;5137425;27;20406;-71
2022/10/02 15:36:00;;;;;;;2.67;1.23;;;;;;;;;;5137303;27;20951;-71
2022/10/02 15:38:44;;;;;;;2.97;1.53;;;;;;;;;;5137330;27;20429;-69
2022/10/02 15:41:30;;;;;;;1.13;0.93;;;;;;;;;;5137294;27;20414;-71
2022/10/02 15:44:05;;;;;;;1.10;1.10;;;;;;;;;;5137130;27;20404;-70